Time;durP1;ratioP1;P1;durP2;ratioP2;P2;SDS_P1;SDS_P2;PMS_P1;PMS_P2;Temp;Humidity;BMP_temperature;BMP_pressure;BME280_temperature;BME280_humidity;BME280_pressure;Samples;Min_cycle;Max_cycle;Signal;HPM_P1;HPM_P2
2023/11/06 00:01:01;;;;;;;7.88;1.70;;;11.70;99.90;;;;;;5065928;28;20142;-61
2023/11/06 00:03:27;;;;;;;11.27;1.42;;;11.70;99.90;;;;;;5060194;28;20016;-62
2023/11/06 00:05:53;;;;;;;10.52;1.10;;;11.60;99.90;;;;;;5065842;28;20550;-62
2023/11/06 00:08:18;;;;;;;10.50;0.95;;;11.60;99.90;;;;;;5057263;28;20124;-62
2023/11/06 00:10:44;;;;;;;4.85;1.17;;;11.60;99.90;;;;;;5062496;28;20107;-60
2023/11/06 00:13:10;;;;;;;7.97;1.05;;;11.60;99.90;;;;;;5065260;28;20036;-62
2023/11/06 00:15:35;;;;;;;7.72;1.33;;;11.70;99.90;;;;;;5062010;28;20028;-63
2023/11/06 00:18:01;;;;;;;9.05;1.63;;;11.60;99.90;;;;;;5068742;28;20058;-62
2023/11/06 00:20:26;;;;;;;10.82;1.75;;;11.60;99.90;;;;;;5067640;28;20036;-58
2023/11/06 00:22:53;;;;;;;11.77;1.30;;;11.50;99.90;;;;;;5060057;28;20111;-62
2023/11/06 00:25:19;;;;;;;7.43;1.35;;;11.50;99.90;;;;;;5058679;28;20483;-61
2023/11/06 00:27:44;;;;;;;12.68;1.33;;;11.50;99.90;;;;;;5055276;28;20041;-62
2023/11/06 00:30:10;;;;;;;8.68;1.55;;;11.50;99.90;;;;;;5070008;28;20025;-63
2023/11/06 00:32:36;;;;;;;11.98;1.75;;;11.40;99.90;;;;;;5063423;28;20028;-63
2023/11/06 00:35:03;;;;;;;5.93;1.33;;;11.30;99.90;;;;;;5067056;28;20078;-64
2023/11/06 00:37:29;;;;;;;8.00;1.40;;;11.30;99.90;;;;;;5063334;28;20033;-62
2023/11/06 00:39:54;;;;;;;7.38;1.13;;;11.40;99.90;;;;;;5062241;28;20043;-62
2023/11/06 00:42:20;;;;;;;6.75;1.00;;;11.40;99.90;;;;;;5066316;28;20109;-63
2023/11/06 00:44:45;;;;;;;5.40;1.42;;;11.30;99.90;;;;;;5066572;28;20032;-62
2023/11/06 00:47:11;;;;;;;8.27;0.98;;;11.40;99.90;;;;;;5059400;28;20590;-62
2023/11/06 00:49:36;;;;;;;13.35;1.60;;;11.30;99.90;;;;;;5066993;28;20099;-62
2023/11/06 00:52:03;;;;;;;4.72;1.00;;;11.20;99.90;;;;;;5062177;28;20033;-63
2023/11/06 00:54:28;;;;;;;7.55;2.60;;;11.30;99.90;;;;;;5062489;28;21771;-63
2023/11/06 00:56:54;;;;;;;21.60;1.73;;;11.30;99.90;;;;;;5065539;28;20074;-61
2023/11/06 00:59:20;;;;;;;6.82;1.38;;;11.30;99.90;;;;;;5062296;28;20041;-61
2023/11/06 01:01:46;;;;;;;8.93;1.20;;;11.20;99.90;;;;;;5059564;28;20025;-61
2023/11/06 01:04:11;;;;;;;6.72;1.20;;;11.20;99.90;;;;;;5061378;28;20533;-61
2023/11/06 01:06:37;;;;;;;8.90;0.80;;;11.20;99.90;;;;;;5066338;28;20025;-63
2023/11/06 01:09:03;;;;;;;8.32;1.08;;;11.20;99.90;;;;;;5058807;28;20029;-62
2023/11/06 01:11:29;;;;;;;7.55;1.23;;;11.20;99.90;;;;;;5066028;28;20436;-62
2023/11/06 01:13:55;;;;;;;6.38;1.15;;;11.20;99.90;;;;;;5058925;28;20033;-62
2023/11/06 01:16:21;;;;;;;8.60;1.40;;;11.20;99.90;;;;;;5065922;28;20048;-61
2023/11/06 01:18:46;;;;;;;8.63;1.27;;;11.20;99.90;;;;;;5056873;28;20044;-62
2023/11/06 01:21:12;;;;;;;4.93;1.02;;;11.30;99.90;;;;;;5065793;28;20024;-61
2023/11/06 01:23:38;;;;;;;6.80;1.10;;;11.30;99.90;;;;;;5062558;28;20047;-61
2023/11/06 01:26:04;;;;;;;2.80;1.33;;;11.40;99.90;;;;;;5066306;28;20016;-61
2023/11/06 01:28:29;;;;;;;5.88;1.27;;;11.40;99.90;;;;;;5062485;28;20028;-62
2023/11/06 01:30:55;;;;;;;3.22;0.88;;;11.40;99.90;;;;;;5067170;28;20036;-63
2023/11/06 01:33:20;;;;;;;12.85;2.47;;;11.40;99.90;;;;;;5061038;28;20029;-61
2023/11/06 01:35:46;;;;;;;6.85;1.90;;;11.40;99.90;;;;;;5069699;28;20076;-62
2023/11/06 01:38:11;;;;;;;11.00;1.70;;;11.40;99.90;;;;;;5056969;28;20090;-61
2023/11/06 01:40:37;;;;;;;7.57;1.02;;;11.40;99.90;;;;;;5063233;28;20070;-62
2023/11/06 01:43:06;;;;;;;5.80;1.55;;;11.40;99.90;;;;;;5059912;28;20115;-61
2023/11/06 01:45:32;;;;;;;6.65;1.10;;;11.40;99.90;;;;;;5065557;28;20099;-61
2023/11/06 01:48:00;;;;;;;5.60;1.02;;;11.40;99.90;;;;;;5063387;28;20455;-62
2023/11/06 01:50:28;;;;;;;6.47;1.35;;;11.30;99.90;;;;;;5067222;28;20025;-62
2023/11/06 01:52:55;;;;;;;8.80;1.55;;;11.40;99.90;;;;;;5061731;28;20053;-61
2023/11/06 01:55:21;;;;;;;6.32;1.15;;;11.40;99.90;;;;;;5064392;28;20495;-61
2023/11/06 01:57:46;;;;;;;5.57;1.20;;;11.40;99.90;;;;;;5066912;28;20059;-62
2023/11/06 02:00:13;;;;;;;5.55;1.60;;;11.50;99.90;;;;;;5069886;28;20021;-63
2023/11/06 02:02:41;;;;;;;10.70;1.10;;;11.50;99.90;;;;;;5067562;28;20047;-63
2023/11/06 02:05:09;;;;;;;10.65;1.52;;;11.50;99.90;;;;;;5065548;28;20021;-62
2023/11/06 02:07:35;;;;;;;9.02;1.33;;;11.50;99.90;;;;;;5070268;28;20071;-63
2023/11/06 02:10:01;;;;;;;4.32;1.42;;;11.50;99.90;;;;;;5065856;28;20021;-62
2023/11/06 02:12:26;;;;;;;5.93;1.33;;;11.50;99.90;;;;;;5064080;28;20049;-63
2023/11/06 02:14:56;;;;;;;10.02;0.98;;;11.50;99.90;;;;;;5065331;28;20025;-62
2023/11/06 02:17:22;;;;;;;14.55;1.27;;;11.50;99.90;;;;;;5057951;28;20048;-62
2023/11/06 02:19:48;;;;;;;10.45;1.20;;;11.60;99.90;;;;;;5062556;28;20414;-63
2023/11/06 02:22:25;;;;;;;6.13;1.02;;;11.60;99.90;;;;;;5064113;28;20021;-63
2023/11/06 02:24:50;;;;;;;4.47;1.10;;;11.50;99.90;;;;;;5067876;28;20025;-62
2023/11/06 02:27:17;;;;;;;6.55;1.38;;;11.50;99.90;;;;;;5070895;28;20012;-62
2023/11/06 02:29:43;;;;;;;10.32;1.20;;;11.50;99.90;;;;;;5064008;28;20028;-62
2023/11/06 02:32:10;;;;;;;5.10;1.00;;;11.50;99.90;;;;;;5067153;28;20475;-60
2023/11/06 02:34:40;;;;;;;6.95;1.00;;;11.50;99.90;;;;;;5062222;28;20055;-62
2023/11/06 02:37:06;;;;;;;7.32;1.02;;;11.40;99.90;;;;;;5065187;28;20443;-61
2023/11/06 02:39:34;;;;;;;7.28;1.00;;;11.40;99.90;;;;;;5062697;28;20108;-60
2023/11/06 02:42:03;;;;;;;10.60;1.52;;;11.30;99.90;;;;;;5067852;28;20025;-62
2023/11/06 02:44:29;;;;;;;7.13;1.10;;;11.30;99.90;;;;;;5061050;28;20455;-62
2023/11/06 02:46:55;;;;;;;9.40;1.25;;;11.30;99.90;;;;;;5068941;28;20107;-59
2023/11/06 02:49:22;;;;;;;2.50;1.00;;;11.30;99.90;;;;;;5063486;28;20029;-60
2023/11/06 02:51:47;;;;;;;5.20;1.25;;;11.30;99.90;;;;;;5066016;28;20029;-63
2023/11/06 02:54:13;;;;;;;6.35;1.00;;;11.30;99.90;;;;;;5061532;28;20087;-65
2023/11/06 02:56:38;;;;;;;3.35;1.05;;;11.20;99.90;;;;;;5064952;28;20031;-61
2023/11/06 02:59:04;;;;;;;6.07;1.13;;;11.20;99.90;;;;;;5059041;28;20486;-61
2023/11/06 03:01:31;;;;;;;7.03;1.10;;;11.30;99.90;;;;;;5062749;28;20040;-59
2023/11/06 03:03:58;;;;;;;9.00;1.23;;;11.30;99.90;;;;;;5055805;28;20479;-61
2023/11/06 03:06:27;;;;;;;10.18;1.10;;;11.30;99.90;;;;;;5064543;28;20052;-62
2023/11/06 03:08:53;;;;;;;4.55;1.38;;;11.30;99.90;;;;;;5060331;28;20074;-61
2023/11/06 03:11:20;;;;;;;10.07;1.02;;;11.30;99.90;;;;;;5063511;28;20033;-60
2023/11/06 03:13:45;;;;;;;5.55;1.20;;;11.30;99.90;;;;;;5065994;28;20069;-61
2023/11/06 03:16:11;;;;;;;3.65;1.10;;;11.30;99.90;;;;;;5066090;28;20040;-63
2023/11/06 03:18:36;;;;;;;12.55;1.00;;;11.30;99.90;;;;;;5063434;28;20041;-61
2023/11/06 03:21:03;;;;;;;3.10;1.00;;;11.30;99.90;;;;;;5061664;28;20033;-62
2023/11/06 03:23:30;;;;;;;5.82;1.17;;;11.30;99.90;;;;;;5068142;28;20025;-60
2023/11/06 03:25:55;;;;;;;12.70;0.98;;;11.30;99.90;;;;;;5068981;28;20051;-58
2023/11/06 03:28:21;;;;;;;5.18;0.98;;;11.30;99.90;;;;;;5059274;28;20048;-62
2023/11/06 03:30:46;;;;;;;6.30;1.05;;;11.30;99.90;;;;;;5061157;28;20036;-62
2023/11/06 03:33:12;;;;;;;1.55;0.80;;;11.20;99.90;;;;;;5060810;28;20029;-62
2023/11/06 03:35:38;;;;;;;6.10;1.30;;;11.20;99.90;;;;;;5062135;28;20065;-60
2023/11/06 03:38:03;;;;;;;7.43;1.77;;;11.20;99.90;;;;;;5062417;28;20050;-60
2023/11/06 03:40:29;;;;;;;5.43;1.17;;;11.20;99.90;;;;;;5058523;28;20041;-59
2023/11/06 03:42:54;;;;;;;7.05;1.20;;;11.20;99.90;;;;;;5064843;28;20024;-58
2023/11/06 03:45:20;;;;;;;7.60;1.20;;;11.10;99.90;;;;;;5059606;28;20025;-59
2023/11/06 03:47:45;;;;;;;10.30;1.00;;;11.10;99.90;;;;;;5058310;28;20044;-62
2023/11/06 03:50:11;;;;;;;5.68;0.82;;;11.10;99.90;;;;;;5059819;28;20025;-59
2023/11/06 03:52:37;;;;;;;6.05;1.30;;;11.10;99.90;;;;;;5060976;28;20033;-61
2023/11/06 03:55:03;;;;;;;8.05;0.95;;;11.00;99.90;;;;;;5063344;28;20025;-61
2023/11/06 03:57:29;;;;;;;5.38;0.90;;;11.10;99.90;;;;;;5065619;28;20020;-62
2023/11/06 03:59:55;;;;;;;9.27;1.30;;;11.00;99.90;;;;;;5057704;28;20043;-61
2023/11/06 04:02:20;;;;;;;9.73;1.13;;;11.00;99.90;;;;;;5061383;28;20037;-59
2023/11/06 04:04:47;;;;;;;5.97;1.13;;;11.00;99.90;;;;;;5057742;28;20117;-59
2023/11/06 04:07:13;;;;;;;6.10;1.67;;;11.00;99.90;;;;;;5062650;28;20095;-61
2023/11/06 04:09:38;;;;;;;9.23;1.10;;;11.00;99.90;;;;;;5058914;28;20029;-61
2023/11/06 04:12:04;;;;;;;6.82;1.20;;;11.00;99.90;;;;;;5063771;28;20032;-62
2023/11/06 04:14:30;;;;;;;5.07;1.25;;;11.00;99.90;;;;;;5055150;28;20027;-61
2023/11/06 04:16:55;;;;;;;7.53;1.20;;;11.00;99.90;;;;;;5066646;28;20024;-61
2023/11/06 04:19:21;;;;;;;7.50;1.23;;;11.00;99.90;;;;;;5054673;28;20112;-61
2023/11/06 04:21:47;;;;;;;12.45;1.33;;;11.00;99.90;;;;;;5062608;28;20029;-61
2023/11/06 04:24:12;;;;;;;7.53;1.00;;;11.00;99.90;;;;;;5059301;28;20395;-62
2023/11/06 04:26:38;;;;;;;5.70;1.38;;;11.00;99.90;;;;;;5065627;28;20499;-60
2023/11/06 04:29:03;;;;;;;6.75;1.60;;;11.00;99.90;;;;;;5056763;28;20021;-60
2023/11/06 04:31:29;;;;;;;7.95;1.55;;;11.00;99.90;;;;;;5062697;28;20043;-60
2023/11/06 04:33:55;;;;;;;7.00;1.35;;;11.00;99.90;;;;;;5068708;28;20035;-61
2023/11/06 04:36:21;;;;;;;15.40;2.08;;;11.10;99.90;;;;;;5062594;28;20031;-61
2023/11/06 04:38:46;;;;;;;14.60;1.60;;;11.10;99.90;;;;;;5059955;28;20040;-62
2023/11/06 04:41:12;;;;;;;10.25;1.27;;;11.10;99.90;;;;;;5060022;28;20376;-62
2023/11/06 04:43:37;;;;;;;8.70;1.52;;;11.10;99.90;;;;;;5063406;28;20718;-62
2023/11/06 04:46:04;;;;;;;7.57;1.30;;;11.10;99.90;;;;;;5063622;28;20106;-63
2023/11/06 04:48:30;;;;;;;13.13;1.48;;;11.10;99.90;;;;;;5065939;28;20044;-62
2023/11/06 04:50:55;;;;;;;17.98;1.65;;;11.10;99.90;;;;;;5062546;28;20032;-62
2023/11/06 04:53:21;;;;;;;12.73;1.55;;;11.10;99.90;;;;;;5057563;28;20036;-63
2023/11/06 04:55:47;;;;;;;12.60;1.90;;;11.10;99.90;;;;;;5059675;28;20037;-62
2023/11/06 04:58:13;;;;;;;19.85;2.60;;;11.10;99.90;;;;;;5055689;28;20413;-62
2023/11/06 05:00:40;;;;;;;16.67;1.52;;;11.10;99.90;;;;;;5061236;28;20116;-62
2023/11/06 05:03:06;;;;;;;9.00;1.70;;;11.10;99.90;;;;;;5068161;28;20024;-63
2023/11/06 05:05:31;;;;;;;15.07;2.10;;;11.20;99.90;;;;;;5059675;28;20033;-62
2023/11/06 05:07:57;;;;;;;14.27;2.03;;;11.10;99.90;;;;;;5062651;28;20086;-60
2023/11/06 05:10:22;;;;;;;15.38;1.98;;;11.10;99.90;;;;;;5058411;28;20112;-62
2023/11/06 05:12:48;;;;;;;16.45;1.92;;;11.10;99.90;;;;;;5064704;28;20056;-63
2023/11/06 05:15:13;;;;;;;9.68;2.08;;;11.10;99.90;;;;;;5059360;28;20102;-63
2023/11/06 05:17:39;;;;;;;8.73;1.70;;;11.10;99.90;;;;;;5066269;28;20408;-62
2023/11/06 05:20:05;;;;;;;12.40;2.13;;;11.20;99.90;;;;;;5062366;28;20499;-63
2023/11/06 05:22:31;;;;;;;16.13;2.65;;;11.20;99.90;;;;;;5055298;28;20021;-62
2023/11/06 05:24:56;;;;;;;10.02;1.60;;;11.10;99.90;;;;;;5062515;28;20083;-63
2023/11/06 05:27:22;;;;;;;13.73;1.95;;;11.00;99.90;;;;;;5061520;28;20032;-59
2023/11/06 05:29:48;;;;;;;12.00;2.00;;;11.00;99.90;;;;;;5059340;28;20035;-63
2023/11/06 05:32:13;;;;;;;17.15;2.55;;;11.10;99.90;;;;;;5073466;28;20020;-63
2023/11/06 05:34:39;;;;;;;14.95;2.53;;;11.10;99.90;;;;;;5057795;28;20017;-62
2023/11/06 05:37:05;;;;;;;15.27;2.63;;;11.10;99.90;;;;;;5078472;28;20020;-64
2023/11/06 05:39:31;;;;;;;17.30;2.38;;;11.10;99.90;;;;;;5056507;28;20032;-63
2023/11/06 05:41:57;;;;;;;19.67;2.40;;;11.10;99.90;;;;;;5067636;28;20082;-63
2023/11/06 05:44:22;;;;;;;21.20;2.55;;;11.00;99.90;;;;;;5058855;28;20020;-62
2023/11/06 05:46:48;;;;;;;13.07;2.08;;;10.90;99.90;;;;;;5057617;28;20028;-62
2023/11/06 05:49:13;;;;;;;14.48;2.08;;;10.80;99.90;;;;;;5061496;28;20043;-62
2023/11/06 05:51:39;;;;;;;17.08;2.35;;;10.80;99.90;;;;;;5057099;28;20645;-63
2023/11/06 05:54:06;;;;;;;15.15;2.05;;;10.70;99.90;;;;;;5057253;28;20514;-61
2023/11/06 05:56:32;;;;;;;22.98;2.60;;;10.70;99.90;;;;;;5058661;28;20033;-62
2023/11/06 05:58:57;;;;;;;19.15;2.72;;;10.70;99.90;;;;;;5059596;28;20398;-62
2023/11/06 06:01:23;;;;;;;15.35;2.03;;;10.60;99.90;;;;;;5055042;28;20068;-63
2023/11/06 06:03:48;;;;;;;17.63;2.22;;;10.50;99.90;;;;;;5060278;28;20055;-63
2023/11/06 06:06:16;;;;;;;20.00;2.17;;;10.40;99.90;;;;;;5058441;28;20115;-62
2023/11/06 06:08:42;;;;;;;19.67;2.90;;;10.30;99.90;;;;;;5055948;28;20508;-62
2023/11/06 06:11:08;;;;;;;15.60;2.30;;;10.30;99.90;;;;;;5059497;28;20054;-62
2023/11/06 06:13:33;;;;;;;16.52;2.53;;;10.30;99.90;;;;;;5063927;28;20028;-63
2023/11/06 06:16:01;;;;;;;16.85;1.80;;;10.20;99.90;;;;;;5067116;28;20032;-62
2023/11/06 06:18:27;;;;;;;14.90;1.63;;;10.20;99.90;;;;;;5059514;28;20025;-63
2023/11/06 06:20:52;;;;;;;19.95;2.40;;;10.10;99.90;;;;;;5056144;28;20031;-62
2023/11/06 06:23:18;;;;;;;27.98;3.22;;;10.10;99.90;;;;;;5061041;28;20056;-62
2023/11/06 06:25:43;;;;;;;23.83;3.17;;;10.00;99.90;;;;;;5057679;28;20134;-60
2023/11/06 06:28:09;;;;;;;24.10;3.47;;;10.00;99.90;;;;;;5056544;28;20101;-61
2023/11/06 06:30:34;;;;;;;17.02;2.90;;;10.00;99.90;;;;;;5061268;28;20585;-61
2023/11/06 06:33:00;;;;;;;13.88;3.25;;;9.90;99.90;;;;;;5057157;28;20130;-62
2023/11/06 06:35:25;;;;;;;32.03;3.35;;;10.00;99.90;;;;;;5069164;28;20074;-63
2023/11/06 06:37:51;;;;;;;19.48;3.22;;;9.80;99.90;;;;;;5059890;28;20036;-62
2023/11/06 06:40:17;;;;;;;19.15;2.67;;;9.90;99.90;;;;;;5060278;28;20029;-62
2023/11/06 06:42:42;;;;;;;15.68;2.50;;;9.90;99.90;;;;;;5071165;28;20035;-63
2023/11/06 06:45:08;;;;;;;18.27;3.03;;;9.80;99.90;;;;;;5064311;28;20021;-62
2023/11/06 06:47:34;;;;;;;29.98;2.70;;;9.80;99.90;;;;;;5059952;28;20021;-60
2023/11/06 06:49:59;;;;;;;21.48;2.78;;;9.70;99.90;;;;;;5061989;28;20028;-63
2023/11/06 06:52:25;;;;;;;17.27;2.63;;;9.60;99.90;;;;;;5064662;28;20498;-62
2023/11/06 06:54:50;;;;;;;20.02;2.50;;;9.50;99.90;;;;;;5061622;28;20070;-62
2023/11/06 06:57:16;;;;;;;11.30;1.48;;;9.50;99.90;;;;;;5063799;28;20486;-62
2023/11/06 06:59:42;;;;;;;21.25;2.40;;;9.50;99.90;;;;;;5061554;28;20093;-62
2023/11/06 07:02:08;;;;;;;13.70;1.88;;;9.70;99.90;;;;;;5067535;28;20111;-62
2023/11/06 07:04:33;;;;;;;9.95;1.45;;;9.70;99.90;;;;;;5059513;28;20017;-61
2023/11/06 07:06:59;;;;;;;9.48;1.42;;;9.70;99.90;;;;;;5067831;28;20056;-57
2023/11/06 07:09:31;;;;;;;18.90;2.92;;;9.80;99.90;;;;;;5061128;28;20395;-62
2023/11/06 07:12:02;;;;;;;14.93;1.75;;;9.80;99.90;;;;;;5062820;28;20512;-62
2023/11/06 07:14:28;;;;;;;11.73;2.00;;;9.80;99.90;;;;;;5065984;28;20028;-61
2023/11/06 07:16:57;;;;;;;14.32;1.90;;;10.00;99.90;;;;;;5061408;28;20029;-62
2023/11/06 07:19:24;;;;;;;25.80;2.03;;;10.00;99.90;;;;;;5063120;28;20170;-62
2023/11/06 07:21:50;;;;;;;16.77;1.85;;;9.80;99.90;;;;;;5059903;28;20023;-62
2023/11/06 07:24:15;;;;;;;15.88;2.53;;;9.80;99.90;;;;;;5061763;28;20021;-63
2023/11/06 07:26:41;;;;;;;18.23;2.28;;;9.80;99.90;;;;;;5063755;28;20028;-61
2023/11/06 07:29:06;;;;;;;15.57;1.92;;;9.90;99.90;;;;;;5063997;28;20024;-62
2023/11/06 07:31:32;;;;;;;12.98;2.47;;;9.90;99.90;;;;;;5063706;28;20028;-62
2023/11/06 07:33:57;;;;;;;15.45;1.98;;;9.90;99.90;;;;;;5061520;28;20090;-62
2023/11/06 07:36:23;;;;;;;16.38;1.52;;;9.90;99.90;;;;;;5063931;28;20082;-61
2023/11/06 07:38:48;;;;;;;20.67;1.85;;;10.00;99.90;;;;;;5057061;28;20060;-62
2023/11/06 07:41:14;;;;;;;16.63;1.98;;;10.10;99.90;;;;;;5061957;28;20065;-61
2023/11/06 07:43:40;;;;;;;7.68;1.70;;;10.10;99.90;;;;;;5061460;28;20107;-61
2023/11/06 07:46:06;;;;;;;14.98;2.42;;;10.10;99.90;;;;;;5066367;28;20033;-62
2023/11/06 07:48:31;;;;;;;12.18;2.33;;;10.20;99.90;;;;;;5072030;28;20174;-61
2023/11/06 07:50:57;;;;;;;14.40;2.08;;;10.40;99.90;;;;;;5065398;28;20021;-62
2023/11/06 07:53:23;;;;;;;13.98;1.98;;;10.40;99.90;;;;;;5061864;28;20017;-61
2023/11/06 07:55:49;;;;;;;7.88;2.05;;;10.50;99.90;;;;;;5069367;28;20453;-62
2023/11/06 07:58:14;;;;;;;16.20;1.95;;;10.60;99.90;;;;;;5068420;28;20485;-62
2023/11/06 08:00:41;;;;;;;13.52;1.90;;;10.60;99.90;;;;;;5062020;28;20112;-61
2023/11/06 08:03:07;;;;;;;13.07;2.97;;;10.60;99.90;;;;;;5073708;28;20024;-61
2023/11/06 08:05:32;;;;;;;9.93;1.65;;;10.70;99.90;;;;;;5061514;28;20573;-62
2023/11/06 08:07:58;;;;;;;9.00;1.42;;;10.60;99.90;;;;;;5063723;28;20489;-62
2023/11/06 08:10:27;;;;;;;13.05;2.33;;;10.80;99.90;;;;;;5067680;28;20398;-62
2023/11/06 08:12:53;;;;;;;12.55;1.70;;;10.90;99.90;;;;;;5066853;28;20028;-61
2023/11/06 08:15:19;;;;;;;13.07;1.70;;;11.00;99.90;;;;;;5058780;28;20074;-61
2023/11/06 08:17:45;;;;;;;21.88;1.95;;;11.00;99.90;;;;;;5060750;28;20507;-61
2023/11/06 08:20:11;;;;;;;10.55;1.73;;;11.10;99.90;;;;;;5066957;28;20034;-62
2023/11/06 08:22:37;;;;;;;14.27;1.52;;;11.10;99.90;;;;;;5068774;28;20021;-62
2023/11/06 08:25:04;;;;;;;10.50;2.33;;;11.10;99.90;;;;;;5059609;28;20047;-63
2023/11/06 08:27:29;;;;;;;15.05;1.60;;;11.10;99.90;;;;;;5058194;28;20043;-61
2023/11/06 08:29:55;;;;;;;9.63;1.30;;;11.20;99.90;;;;;;5060248;28;20032;-62
2023/11/06 08:32:21;;;;;;;12.00;1.60;;;11.30;99.90;;;;;;5062761;28;20024;-63
2023/11/06 08:34:47;;;;;;;12.65;1.50;;;11.30;99.90;;;;;;5061256;28;20028;-60
2023/11/06 08:37:14;;;;;;;9.05;1.40;;;11.40;99.90;;;;;;5069593;28;20025;-60
2023/11/06 08:39:43;;;;;;;12.05;1.52;;;11.40;99.90;;;;;;5067661;28;20032;-62
2023/11/06 08:42:13;;;;;;;6.95;1.77;;;11.50;99.90;;;;;;5064481;28;20112;-61
2023/11/06 08:44:46;;;;;;;10.07;1.85;;;11.50;99.90;;;;;;5064762;28;20070;-62
2023/11/06 08:47:12;;;;;;;12.18;1.83;;;11.60;99.90;;;;;;5068994;28;20390;-62
2023/11/06 08:49:38;;;;;;;12.07;1.70;;;11.70;99.90;;;;;;5068840;28;20027;-62
2023/11/06 08:52:04;;;;;;;18.85;2.00;;;11.70;99.90;;;;;;5066279;28;20033;-62
2023/11/06 08:54:30;;;;;;;11.50;1.88;;;11.80;99.90;;;;;;5063126;28;20048;-62
2023/11/06 08:56:57;;;;;;;12.27;1.73;;;11.80;99.90;;;;;;5056859;28;20025;-62
2023/11/06 08:59:23;;;;;;;9.13;1.50;;;11.90;99.90;;;;;;5058350;28;20027;-62
2023/11/06 09:01:50;;;;;;;6.93;1.90;;;11.90;99.90;;;;;;5062649;28;20029;-55
2023/11/06 09:04:16;;;;;;;23.63;2.10;;;12.00;99.90;;;;;;5061813;28;20032;-60
2023/11/06 09:06:41;;;;;;;12.45;1.70;;;12.00;99.90;;;;;;5062108;28;20040;-60
2023/11/06 09:09:08;;;;;;;15.60;2.03;;;12.10;99.90;;;;;;5058918;28;20505;-61
2023/11/06 09:11:38;;;;;;;12.20;1.30;;;12.10;99.90;;;;;;5061087;28;20029;-62
2023/11/06 09:14:04;;;;;;;9.00;1.52;;;12.20;99.90;;;;;;5070281;28;20060;-63
2023/11/06 09:16:34;;;;;;;11.25;1.80;;;12.30;99.90;;;;;;5061327;28;20399;-61
2023/11/06 09:19:00;;;;;;;18.00;2.13;;;12.40;99.90;;;;;;5062439;28;20556;-62
2023/11/06 09:21:25;;;;;;;13.30;2.00;;;12.40;99.90;;;;;;5067914;28;20032;-61
2023/11/06 09:23:52;;;;;;;12.52;1.60;;;12.50;99.90;;;;;;5060333;28;20087;-62
2023/11/06 09:26:19;;;;;;;10.95;2.13;;;12.50;99.90;;;;;;5063557;28;20020;-63
2023/11/06 09:28:45;;;;;;;17.33;1.80;;;12.60;99.90;;;;;;5063059;28;20382;-60
2023/11/06 09:31:10;;;;;;;12.93;1.75;;;12.60;99.90;;;;;;5059553;28;20040;-62
2023/11/06 09:33:36;;;;;;;9.93;1.48;;;12.60;99.90;;;;;;5065770;28;20029;-62
2023/11/06 09:36:02;;;;;;;14.27;1.60;;;12.70;99.90;;;;;;5068409;28;20054;-62
2023/11/06 09:38:28;;;;;;;17.65;2.05;;;12.70;99.90;;;;;;5072775;28;20017;-62
2023/11/06 09:40:53;;;;;;;12.02;1.98;;;12.80;99.90;;;;;;5063203;28;20033;-62
2023/11/06 09:43:20;;;;;;;13.60;1.90;;;12.90;99.90;;;;;;5061521;28;20013;-63
2023/11/06 09:45:46;;;;;;;11.38;1.98;;;12.90;99.90;;;;;;5065550;28;20473;-62
2023/11/06 09:48:17;;;;;;;10.43;1.75;;;13.00;99.90;;;;;;5070118;28;20040;-62
2023/11/06 09:50:46;;;;;;;10.35;1.48;;;13.10;99.90;;;;;;5060836;28;20052;-61
2023/11/06 09:53:13;;;;;;;16.98;2.38;;;13.20;99.90;;;;;;5061900;28;20161;-63
2023/11/06 09:55:40;;;;;;;16.95;2.15;;;13.10;99.90;;;;;;5060453;28;20150;-63
2023/11/06 09:58:06;;;;;;;17.38;1.77;;;13.10;99.90;;;;;;5063248;28;20070;-62
2023/11/06 10:00:32;;;;;;;14.40;2.20;;;13.10;99.90;;;;;;5061790;28;20025;-61
2023/11/06 10:02:57;;;;;;;17.23;2.45;;;13.10;99.90;;;;;;5063598;28;20051;-62
2023/11/06 10:05:24;;;;;;;15.63;2.00;;;13.20;99.90;;;;;;5061516;28;20052;-62
2023/11/06 10:07:52;;;;;;;18.42;1.95;;;13.20;99.90;;;;;;5064849;28;20035;-62
2023/11/06 10:10:19;;;;;;;16.30;2.05;;;13.30;99.90;;;;;;5069259;28;20023;-60
2023/11/06 10:12:59;;;;;;;19.83;1.40;;;13.40;99.90;;;;;;5068863;28;20052;-62
2023/11/06 10:15:25;;;;;;;13.10;2.72;;;13.60;99.90;;;;;;5058575;28;20558;-62
2023/11/06 10:17:50;;;;;;;24.23;3.50;;;13.70;99.90;;;;;;5064646;28;20036;-63
2023/11/06 10:20:16;;;;;;;25.23;2.85;;;13.70;99.90;;;;;;5067526;28;20488;-63
2023/11/06 10:22:55;;;;;;;13.18;2.00;;;13.80;99.90;;;;;;5075937;28;20412;-63
2023/11/06 10:25:27;;;;;;;15.98;2.15;;;13.80;99.90;;;;;;5062535;28;20025;-62
2023/11/06 10:27:57;;;;;;;10.25;1.83;;;13.70;99.90;;;;;;5063465;28;20368;-62
2023/11/06 10:30:23;;;;;;;5.10;1.55;;;13.60;99.90;;;;;;5067956;28;20039;-60
2023/11/06 10:32:49;;;;;;;14.73;1.80;;;13.60;99.90;;;;;;5064115;28;20032;-61
2023/11/06 10:35:17;;;;;;;9.05;1.50;;;13.60;99.90;;;;;;5063931;28;21000;-62
2023/11/06 10:37:44;;;;;;;24.55;2.65;;;13.70;99.90;;;;;;5060013;28;20020;-62
2023/11/06 10:40:17;;;;;;;18.60;2.75;;;13.80;99.90;;;;;;5067556;28;20108;-61
2023/11/06 10:42:47;;;;;;;12.75;1.35;;;13.60;99.90;;;;;;5065681;28;20032;-62
2023/11/06 10:45:18;;;;;;;13.13;1.67;;;13.60;99.90;;;;;;5068002;28;20020;-62
2023/11/06 10:47:46;;;;;;;17.17;1.95;;;13.60;99.90;;;;;;5063023;28;20064;-60
2023/11/06 10:50:31;;;;;;;16.42;1.67;;;13.60;99.90;;;;;;5063637;28;20028;-63
2023/11/06 10:52:59;;;;;;;12.05;1.63;;;13.50;99.90;;;;;;5066882;28;20031;-61
2023/11/06 10:55:25;;;;;;;13.57;1.92;;;13.40;99.90;;;;;;5070247;28;20043;-62
2023/11/06 10:57:53;;;;;;;17.67;1.80;;;13.40;99.90;;;;;;5064337;28;20051;-62
2023/11/06 11:00:23;;;;;;;10.38;1.92;;;13.30;99.90;;;;;;5070964;28;20024;-63
2023/11/06 11:02:54;;;;;;;10.25;1.73;;;13.40;99.90;;;;;;5063367;28;20458;-60
2023/11/06 11:05:24;;;;;;;10.32;1.65;;;13.40;99.90;;;;;;5070725;28;20479;-62
2023/11/06 11:07:51;;;;;;;10.57;1.48;;;13.30;99.90;;;;;;5069735;28;20107;-62
2023/11/06 11:10:18;;;;;;;13.63;1.63;;;13.40;99.90;;;;;;5064682;28;20066;-61
2023/11/06 11:12:51;;;;;;;8.57;1.67;;;13.40;99.90;;;;;;5064949;28;20571;-61
2023/11/06 11:15:31;;;;;;;9.45;1.45;;;13.40;99.90;;;;;;5065766;28;20037;-62
2023/11/06 11:18:00;;;;;;;7.97;1.92;;;13.50;99.90;;;;;;5064837;28;20036;-62
2023/11/06 11:20:26;;;;;;;4.97;1.13;;;13.50;99.90;;;;;;5071958;28;20024;-62
2023/11/06 11:23:10;;;;;;;12.25;1.80;;;13.50;99.90;;;;;;5067633;28;20482;-63
2023/11/06 11:25:58;;;;;;;13.40;1.38;;;13.40;99.90;;;;;;5067545;28;20056;-62
2023/11/06 11:28:26;;;;;;;15.40;2.05;;;13.50;99.90;;;;;;5064746;28;20479;-63
2023/11/06 11:30:52;;;;;;;5.78;1.35;;;13.50;99.90;;;;;;5065892;28;20028;-62
2023/11/06 11:33:53;;;;;;;5.38;1.10;;;13.60;99.90;;;;;;5069571;28;20066;-61
2023/11/06 11:36:33;;;;;;;11.45;1.77;;;13.70;99.90;;;;;;5040653;28;20094;-62
2023/11/06 11:39:01;;;;;;;8.80;1.48;;;13.90;99.90;;;;;;5058454;28;20021;-63
2023/11/06 11:41:26;;;;;;;7.18;0.90;;;14.00;99.90;;;;;;5062369;28;20112;-61
2023/11/06 11:44:08;;;;;;;4.13;0.80;;;14.00;99.90;;;;;;5060051;28;20490;-61
2023/11/06 11:46:53;;;;;;;3.60;0.60;;;14.10;99.90;;;;;;5066278;28;20028;-62
2023/11/06 11:49:36;;;;;;;6.93;1.00;;;14.00;99.90;;;;;;5056946;28;20454;-61
2023/11/06 11:52:03;;;;;;;4.55;0.80;;;14.30;99.90;;;;;;5059950;28;20024;-61
2023/11/06 11:54:31;;;;;;;4.18;1.33;;;14.30;99.90;;;;;;5058107;28;20021;-62
2023/11/06 11:56:58;;;;;;;9.95;1.05;;;14.20;99.90;;;;;;5064092;28;20025;-62
2023/11/06 11:59:29;;;;;;;7.95;1.02;;;14.00;99.90;;;;;;5061726;28;20025;-62
2023/11/06 12:01:55;;;;;;;11.07;1.10;;;14.20;99.90;;;;;;5059888;28;20037;-62
2023/11/06 12:04:24;;;;;;;12.35;0.95;;;14.10;99.90;;;;;;5067955;28;20116;-63
2023/11/06 12:06:59;;;;;;;9.50;1.00;;;14.10;99.90;;;;;;5068831;28;20020;-63
2023/11/06 12:09:25;;;;;;;3.65;0.60;;;14.60;99.90;;;;;;5063633;28;20388;-62
2023/11/06 12:11:51;;;;;;;2.40;0.57;;;14.90;99.90;;;;;;5064208;28;20032;-61
2023/11/06 12:14:16;;;;;;;4.10;0.70;;;14.90;99.90;;;;;;5063798;28;20401;-62
2023/11/06 12:16:49;;;;;;;7.57;1.00;;;15.40;99.90;;;;;;5063440;28;20513;-62
2023/11/06 12:19:15;;;;;;;2.53;0.60;;;15.60;99.90;;;;;;5066748;28;20028;-62
2023/11/06 12:21:41;;;;;;;4.13;0.60;;;15.60;99.90;;;;;;5056915;28;20120;-62
2023/11/06 12:24:08;;;;;;;3.45;0.82;;;15.30;99.90;;;;;;5063519;28;20489;-62
2023/11/06 12:26:35;;;;;;;5.35;0.80;;;15.40;99.90;;;;;;5066529;28;20076;-61
2023/11/06 12:29:00;;;;;;;2.13;0.60;;;15.50;99.90;;;;;;5058623;28;20033;-57
2023/11/06 12:31:36;;;;;;;5.00;1.23;;;15.10;99.90;;;;;;5057982;28;20039;-62
2023/11/06 12:34:02;;;;;;;2.35;0.70;;;15.10;99.90;;;;;;5060814;28;20033;-62
2023/11/06 12:36:30;;;;;;;3.08;1.20;;;15.30;99.90;;;;;;5059770;28;20161;-61
2023/11/06 12:38:58;;;;;;;3.08;0.50;;;15.70;99.90;;;;;;5056828;28;20536;-62
2023/11/06 12:41:38;;;;;;;2.60;0.57;;;16.00;99.90;;;;;;5057103;28;20556;-62